createdAt,value
2022-10-25T00:00:31.403Z,95777.8
2022-10-25T00:01:34.199Z,95774.4
2022-10-25T00:02:36.652Z,95776.4
2022-10-25T00:03:39.282Z,95774.6
2022-10-25T00:04:41.523Z,95773.9
2022-10-25T00:05:43.722Z,95774.2
2022-10-25T00:06:45.661Z,95773.6
2022-10-25T00:07:49.364Z,95778.1
2022-10-25T00:08:51.478Z,95773.9
2022-10-25T00:09:53.402Z,95773.7
2022-10-25T00:10:55.870Z,95770.6
2022-10-25T00:11:58.066Z,95771.6
2022-10-25T00:13:00.255Z,95768.5
2022-10-25T00:14:02.752Z,95771
2022-10-25T00:15:05.225Z,95772.4
2022-10-25T00:16:07.690Z,95772.3
2022-10-25T00:17:10.185Z,95773.3
2022-10-25T00:18:12.656Z,95770.1
2022-10-25T00:19:15.570Z,95777
2022-10-25T00:20:18.048Z,95770.2
2022-10-25T00:21:20.244Z,95776.5
2022-10-25T00:22:22.764Z,95766.9
2022-10-25T00:23:25.262Z,95770.3
2022-10-25T00:24:27.741Z,95764.9
2022-10-25T00:25:29.903Z,95768
2022-10-25T00:26:32.377Z,95764
2022-10-25T00:27:34.871Z,95759.1
2022-10-25T00:28:37.341Z,95765.8
2022-10-25T00:29:39.554Z,95763.5
2022-10-25T00:30:42.024Z,95758.3
2022-10-25T00:31:44.501Z,95760.8
2022-10-25T00:32:48.337Z,95764.8
2022-10-25T00:33:50.750Z,95764
2022-10-25T00:34:53.355Z,95765.5
2022-10-25T00:35:55.821Z,95761.5
2022-10-25T00:36:58.285Z,95760.3
2022-10-25T00:38:00.799Z,95758.8
2022-10-25T00:39:03.045Z,95761.2
2022-10-25T00:40:05.012Z,95759
2022-10-25T00:41:07.210Z,95763
2022-10-25T00:42:08.854Z,95766.5
2022-10-25T00:43:11.053Z,95766.5
2022-10-25T00:44:13.251Z,95767.2
2022-10-25T00:45:15.753Z,95764.9
2022-10-25T00:46:18.217Z,95764
2022-10-25T00:47:20.695Z,95764.4
2022-10-25T00:48:22.609Z,95762.2
2022-10-25T00:49:25.083Z,95764.1
2022-10-25T00:50:27.547Z,95765.1
2022-10-25T00:51:30.021Z,95763.6
2022-10-25T00:52:32.495Z,95760
2022-10-25T00:53:35.014Z,95764.7
2022-10-25T00:54:37.509Z,95763.1
2022-10-25T00:55:39.982Z,95766.9
2022-10-25T00:56:42.181Z,95766.1
2022-10-25T00:57:45.982Z,95761.4
2022-10-25T00:58:48.797Z,95759.8
2022-10-25T00:59:51.272Z,95757.8
2022-10-25T01:00:53.760Z,95758.7
2022-10-25T01:01:56.835Z,95752.7
2022-10-25T01:02:59.331Z,95757.8
2022-10-25T01:04:01.528Z,95751.6
2022-10-25T01:05:04.007Z,95750.4
2022-10-25T01:06:06.192Z,95747
2022-10-25T01:07:08.662Z,95747.8
2022-10-25T01:08:10.839Z,95745.9
2022-10-25T01:09:12.802Z,95745.9
2022-10-25T01:10:15.031Z,95743.1
2022-10-25T01:11:18.300Z,95742.2
2022-10-25T01:12:20.779Z,95741
2022-10-25T01:13:22.984Z,95740.1
2022-10-25T01:14:25.473Z,95738.1
2022-10-25T01:15:27.687Z,95740.5
2022-10-25T01:16:29.600Z,95741.1
2022-10-25T01:17:32.065Z,95743
2022-10-25T01:18:34.533Z,95740.6
2022-10-25T01:19:36.177Z,95738.3
2022-10-25T01:20:38.362Z,95743.6
2022-10-25T01:21:40.852Z,95742.2
2022-10-25T01:22:43.455Z,95739.8
2022-10-25T01:23:46.113Z,95742
2022-10-25T01:24:48.322Z,95743.4
2022-10-25T01:25:50.818Z,95743.1
2022-10-25T01:26:53.278Z,95737.4
2022-10-25T01:28:59.143Z,95735.9
2022-10-25T01:30:01.375Z,95734.3
2022-10-25T01:31:03.285Z,95730.7
2022-10-25T01:32:05.534Z,95731.3
2022-10-25T01:33:07.703Z,95728.1
2022-10-25T01:34:09.883Z,95727
2022-10-25T01:35:12.349Z,95726.6
2022-10-25T01:36:15.649Z,95726.4
2022-10-25T01:37:18.157Z,95728.3
2022-10-25T01:38:20.641Z,95727.6
2022-10-25T01:39:23.105Z,95723.8
2022-10-25T01:40:25.626Z,95727.8
2022-10-25T01:41:28.125Z,95723.1
2022-10-25T01:42:30.601Z,95722.9
2022-10-25T01:43:32.794Z,95720.9
2022-10-25T01:45:38.642Z,95722.2
2022-10-25T01:46:40.847Z,95729.2
2022-10-25T01:47:43.592Z,95729
2022-10-25T01:48:46.548Z,95730.2
2022-10-25T01:49:49.019Z,95733
2022-10-25T01:50:51.216Z,95739.8
2022-10-25T01:51:53.685Z,95735.6
2022-10-25T01:52:56.217Z,95737.4
2022-10-25T01:53:58.409Z,95739.2
2022-10-25T01:55:00.329Z,95736.8
2022-10-25T01:56:02.832Z,95738.6
2022-10-25T01:57:05.059Z,95737.1
2022-10-25T01:58:07.229Z,95735.4
2022-10-25T01:59:09.739Z,95735.8
2022-10-25T02:00:11.929Z,95740.6
2022-10-25T02:01:15.405Z,95740.7
2022-10-25T02:02:17.731Z,95739.8
2022-10-25T02:03:19.948Z,95737.6
2022-10-25T02:04:22.413Z,95737.5
2022-10-25T02:05:24.884Z,95735
2022-10-25T02:06:27.356Z,95739.5
2022-10-25T02:07:29.821Z,95735.6
2022-10-25T02:08:32.293Z,95729.2
2022-10-25T02:09:34.204Z,95725.7
2022-10-25T02:10:36.431Z,95730.1
2022-10-25T02:11:38.929Z,95739.7
2022-10-25T02:12:40.866Z,95739.4
2022-10-25T02:13:43.333Z,95744.2
2022-10-25T02:14:45.531Z,95742
2022-10-25T02:15:47.734Z,95743.9
2022-10-25T02:16:50.229Z,95739.5
2022-10-25T02:17:52.426Z,95738.5
2022-10-25T02:18:54.920Z,95743.7
2022-10-25T02:19:57.376Z,95740.2
2022-10-25T02:20:59.579Z,95742.6
2022-10-25T02:22:02.073Z,95751.5
2022-10-25T02:23:04.272Z,95754
2022-10-25T02:24:06.462Z,95749.8
2022-10-25T02:25:08.953Z,95752.7
2022-10-25T02:26:10.870Z,95753.9
2022-10-25T02:27:13.419Z,95757.4
2022-10-25T02:28:15.903Z,95759.9
2022-10-25T02:29:18.384Z,95759
2022-10-25T02:30:20.572Z,95758.1
2022-10-25T02:31:22.481Z,95755.4
2022-10-25T02:32:24.416Z,95758.6
2022-10-25T02:33:26.629Z,95758.7
2022-10-25T02:34:28.591Z,95757.4
2022-10-25T02:35:31.054Z,95750.5
2022-10-25T02:36:33.245Z,95757
2022-10-25T02:37:35.420Z,95759.8
2022-10-25T02:38:37.883Z,95760.8
2022-10-25T02:39:39.818Z,95761.1
2022-10-25T02:40:42.287Z,95757.9
2022-10-25T02:41:44.757Z,95750.1
2022-10-25T02:42:47.263Z,95743.5
2022-10-25T02:43:49.762Z,95744.7
2022-10-25T02:44:52.241Z,95740.5
2022-10-25T02:45:54.170Z,95747.8
2022-10-25T02:46:56.364Z,95746.6
2022-10-25T02:47:58.864Z,95747.8
2022-10-25T02:49:01.082Z,95748.4
2022-10-25T02:50:03.326Z,95749.4
2022-10-25T02:51:05.786Z,95750.3
2022-10-25T02:52:07.711Z,95749.2
2022-10-25T02:53:09.899Z,95748.1
2022-10-25T02:54:12.254Z,95747.6
2022-10-25T02:55:14.509Z,95744.8
2022-10-25T02:56:16.742Z,95751
2022-10-25T02:57:19.240Z,95753.1
2022-10-25T02:58:21.819Z,95750.8
2022-10-25T02:59:24.333Z,95750.6
2022-10-25T03:00:26.868Z,95751.8
2022-10-25T03:01:30.068Z,95754.6
2022-10-25T03:02:32.514Z,95755
2022-10-25T03:03:35.004Z,95754.1
2022-10-25T03:04:37.168Z,95761.3
2022-10-25T03:05:39.681Z,95762.8
2022-10-25T03:06:41.866Z,95762.8
2022-10-25T03:07:43.772Z,95765.2
2022-10-25T03:08:45.969Z,95761.3
2022-10-25T03:09:48.446Z,95759.9
2022-10-25T03:10:50.638Z,95757.8
2022-10-25T03:11:52.845Z,95756.8
2022-10-25T03:12:55.306Z,95756.8
2022-10-25T03:13:57.560Z,95761
2022-10-25T03:15:00.046Z,95756.6
2022-10-25T03:16:02.247Z,95759.1
2022-10-25T03:17:04.711Z,95761.4
2022-10-25T03:18:06.917Z,95758.9
2022-10-25T03:19:09.103Z,95763.4
2022-10-25T03:20:11.026Z,95761.1
2022-10-25T03:21:13.254Z,95764.2
2022-10-25T03:22:15.809Z,95763.9
2022-10-25T03:23:18.027Z,95760.6
2022-10-25T03:24:20.509Z,95758
2022-10-25T03:25:22.984Z,95756.9
2022-10-25T03:26:25.191Z,95756.3
2022-10-25T03:27:27.650Z,95756.6
2022-10-25T03:28:30.127Z,95764.3
2022-10-25T03:29:32.048Z,95760.8
2022-10-25T03:30:34.278Z,95764.1
2022-10-25T03:31:36.748Z,95761.1
2022-10-25T03:32:38.952Z,95764.7
2022-10-25T03:33:41.187Z,95762.4
2022-10-25T03:34:43.684Z,95761.8
2022-10-25T03:35:46.159Z,95761.2
2022-10-25T03:36:48.672Z,95766.9
2022-10-25T03:37:51.206Z,95764.9
2022-10-25T03:38:53.684Z,95773
2022-10-25T03:39:56.146Z,95768.7
2022-10-25T03:40:58.352Z,95768.3
2022-10-25T03:42:00.534Z,95768.1
2022-10-25T03:43:03.031Z,95772.4
2022-10-25T03:44:05.734Z,95771
2022-10-25T03:45:08.353Z,95774
2022-10-25T03:46:10.679Z,95776
2022-10-25T03:47:12.923Z,95775.3
2022-10-25T03:48:15.156Z,95775.3
2022-10-25T03:49:17.382Z,95775
2022-10-25T03:50:19.903Z,95779.3
2022-10-25T03:51:22.375Z,95779.3
2022-10-25T03:52:24.872Z,95777.9
2022-10-25T03:53:27.065Z,95776
2022-10-25T03:54:30.907Z,95779.8
2022-10-25T03:55:33.380Z,95777
2022-10-25T03:56:35.854Z,95781.3
2022-10-25T03:57:38.047Z,95779.7
2022-10-25T03:58:40.517Z,95777.3
2022-10-25T03:59:42.414Z,95774
2022-10-25T04:00:45.127Z,95775.3
2022-10-25T04:01:48.386Z,95775.1
2022-10-25T04:02:51.241Z,95778.8
2022-10-25T04:03:53.518Z,95780.6
2022-10-25T04:04:55.753Z,95777.2
2022-10-25T04:05:58.240Z,95780.1
2022-10-25T04:07:00.434Z,95778.4
2022-10-25T04:08:02.928Z,95777.9
2022-10-25T04:09:05.400Z,95778.1
2022-10-25T04:10:07.659Z,95776.3
2022-10-25T04:11:09.580Z,95776.5
2022-10-25T04:12:12.072Z,95780.1
2022-10-25T04:13:14.565Z,95781.1
2022-10-25T04:14:16.506Z,95779.3
2022-10-25T04:15:18.426Z,95782.5
2022-10-25T04:16:20.795Z,95777.8
2022-10-25T04:17:23.029Z,95776.8
2022-10-25T04:18:25.510Z,95776.6
2022-10-25T04:19:27.439Z,95779.3
2022-10-25T04:20:29.356Z,95776.1
2022-10-25T04:21:31.883Z,95773.4
2022-10-25T04:22:34.594Z,95781.6
2022-10-25T04:23:37.134Z,95777.9
2022-10-25T04:24:39.614Z,95772.4
2022-10-25T04:25:42.083Z,95776
2022-10-25T04:26:44.265Z,95777.2
2022-10-25T04:27:48.546Z,95777.5
2022-10-25T04:28:51.366Z,95777.6
2022-10-25T04:29:53.851Z,95769.3
2022-10-25T04:30:56.321Z,95771.6
2022-10-25T04:31:58.533Z,95770.3
2022-10-25T04:33:00.475Z,95777.8
2022-10-25T04:34:02.945Z,95779
2022-10-25T04:35:05.443Z,95778.2
2022-10-25T04:36:07.646Z,95779.9
2022-10-25T04:37:10.137Z,95776.1
2022-10-25T04:38:12.616Z,95779.4
2022-10-25T04:39:14.545Z,95775.1
2022-10-25T04:41:22.679Z,95773.6
2022-10-25T04:42:25.277Z,95771.1
2022-10-25T04:43:27.827Z,95775.7
2022-10-25T04:44:30.052Z,95776.1
2022-10-25T04:45:32.555Z,95774.8
2022-10-25T04:46:34.499Z,95773.5
2022-10-25T04:47:37.020Z,95779.4
2022-10-25T04:48:39.529Z,95778.8
2022-10-25T04:49:42.027Z,95775.3
2022-10-25T04:50:44.569Z,95778.8
2022-10-25T04:51:47.284Z,95780.4
2022-10-25T04:52:50.978Z,95778.3
2022-10-25T04:53:53.681Z,95782.2
2022-10-25T04:54:55.896Z,95781.2
2022-10-25T04:55:58.083Z,95780.7
2022-10-25T04:57:00.270Z,95782.5
2022-10-25T04:58:02.174Z,95780.9
2022-10-25T04:59:04.379Z,95780.7
2022-10-25T05:00:06.572Z,95785.4
2022-10-25T05:01:09.275Z,95784.8
2022-10-25T05:02:11.327Z,95789.4
2022-10-25T05:03:15.111Z,95788.4
2022-10-25T05:04:17.457Z,95787.6
2022-10-25T05:05:19.116Z,95789
2022-10-25T05:06:21.292Z,95790.1
2022-10-25T05:07:23.510Z,95789.6
2022-10-25T05:08:25.737Z,95793.8
2022-10-25T05:09:28.218Z,95788.4
2022-10-25T05:10:30.444Z,95790.2
2022-10-25T05:11:32.805Z,95791.5
2022-10-25T05:12:35.103Z,95792.4
2022-10-25T05:13:37.319Z,95791
2022-10-25T05:14:39.511Z,95790.3
2022-10-25T05:15:41.718Z,95788.4
2022-10-25T05:16:43.889Z,95794.6
2022-10-25T05:17:46.371Z,95794.5
2022-10-25T05:18:48.610Z,95796.9
2022-10-25T05:19:50.568Z,95788.5
2022-10-25T05:20:53.038Z,95789.1
2022-10-25T05:21:55.527Z,95793.7
2022-10-25T05:22:57.749Z,95796.6
2022-10-25T05:25:05.293Z,95787.5
2022-10-25T05:26:07.532Z,95787.9
2022-10-25T05:27:09.727Z,95788.8
2022-10-25T05:28:12.220Z,95787.4
2022-10-25T05:29:14.718Z,95791.8
2022-10-25T05:30:17.210Z,95788.8
2022-10-25T05:31:19.434Z,95796.2
2022-10-25T05:32:21.644Z,95791.8
2022-10-25T05:33:23.879Z,95797.5
2022-10-25T05:34:26.391Z,95797.3
2022-10-25T05:35:28.595Z,95801.2
2022-10-25T05:36:31.141Z,95800.1
2022-10-25T05:37:33.325Z,95804
2022-10-25T05:39:40.526Z,95805.5
2022-10-25T05:40:42.713Z,95805.9
2022-10-25T05:41:45.200Z,95807.5
2022-10-25T05:42:49.255Z,95807.9
2022-10-25T05:43:51.636Z,95813.4
2022-10-25T05:44:53.565Z,95812.6
2022-10-25T05:45:55.202Z,95807.7
2022-10-25T05:46:57.102Z,95810
2022-10-25T05:47:59.308Z,95813.5
2022-10-25T05:49:01.863Z,95814.2
2022-10-25T05:50:04.092Z,95810
2022-10-25T05:52:11.312Z,95811.5
2022-10-25T05:53:13.510Z,95810.8
2022-10-25T05:54:15.723Z,95813.6
2022-10-25T05:55:17.944Z,95814.8
2022-10-25T05:56:20.130Z,95812.6
2022-10-25T05:57:22.371Z,95814.6
2022-10-25T05:58:24.571Z,95818.1
2022-10-25T05:59:26.769Z,95819.5
2022-10-25T06:00:29.575Z,95818.5
2022-10-25T06:01:32.059Z,95814.9
2022-10-25T06:02:34.671Z,95819.6
2022-10-25T06:03:36.892Z,95816.8
2022-10-25T06:04:39.365Z,95816.8
2022-10-25T06:05:41.594Z,95815.8
2022-10-25T06:06:44.088Z,95815.9
2022-10-25T06:07:46.565Z,95821.6
2022-10-25T06:08:49.039Z,95816.4
2022-10-25T06:09:51.250Z,95825.3
2022-10-25T06:10:53.475Z,95824.8
2022-10-25T06:11:55.491Z,95825.8
2022-10-25T06:12:57.705Z,95828.6
2022-10-25T06:14:00.177Z,95831.2
2022-10-25T06:15:01.838Z,95836.7
2022-10-25T06:16:04.307Z,95834.2
2022-10-25T06:17:06.493Z,95837.3
2022-10-25T06:18:08.415Z,95844.4
2022-10-25T06:19:10.618Z,95845.5
2022-10-25T06:20:12.822Z,95844.6
2022-10-25T06:21:15.325Z,95844.2
2022-10-25T06:22:17.838Z,95847
2022-10-25T06:23:20.040Z,95848.2
2022-10-25T06:24:22.527Z,95852.9
2022-10-25T06:25:24.989Z,95853.2
2022-10-25T06:26:27.512Z,95851.6
2022-10-25T06:27:29.988Z,95858.4
2022-10-25T06:28:32.502Z,95856.1
2022-10-25T06:29:34.726Z,95859.5
2022-10-25T06:30:37.215Z,95859.7
2022-10-25T06:31:39.415Z,95859.6
2022-10-25T06:32:41.893Z,95859.3
2022-10-25T06:33:43.553Z,95854.3
2022-10-25T06:34:45.207Z,95854
2022-10-25T06:35:47.412Z,95854.6
2022-10-25T06:36:49.926Z,95858.4
2022-10-25T06:37:51.872Z,95858.1
2022-10-25T06:38:53.784Z,95857.8
2022-10-25T06:39:56.285Z,95855.8
2022-10-25T06:40:58.490Z,95855.3
2022-10-25T06:42:00.993Z,95859.9
2022-10-25T06:43:03.193Z,95856.1
2022-10-25T06:45:10.740Z,95860.8
2022-10-25T06:46:12.917Z,95859.3
2022-10-25T06:48:20.408Z,95858.8
2022-10-25T06:49:22.624Z,95862.9
2022-10-25T06:50:24.829Z,95859.4
2022-10-25T06:51:26.742Z,95861.2
2022-10-25T06:52:29.253Z,95859.6
2022-10-25T06:53:31.488Z,95860.8
2022-10-25T06:54:34.022Z,95865.4
2022-10-25T06:55:36.232Z,95860.7
2022-10-25T06:56:38.710Z,95863.8
2022-10-25T06:57:40.931Z,95863.1
2022-10-25T06:58:43.226Z,95863
2022-10-25T06:59:45.167Z,95858.9
2022-10-25T07:01:53.362Z,95857.8
2022-10-25T07:02:56.017Z,95856.8
2022-10-25T07:03:57.929Z,95858
2022-10-25T07:05:00.466Z,95860.2
2022-10-25T07:06:02.736Z,95859.9
2022-10-25T07:07:04.935Z,95862.8
2022-10-25T07:08:06.917Z,95860.5
2022-10-25T07:09:08.623Z,95863.9
2022-10-25T07:10:11.097Z,95863.7
2022-10-25T07:11:13.061Z,95867.5
2022-10-25T07:12:15.244Z,95871.9
2022-10-25T07:13:17.745Z,95870.9
2022-10-25T07:14:19.967Z,95879
2022-10-25T07:15:22.518Z,95879.1
2022-10-25T07:16:25.004Z,95880
2022-10-25T07:17:27.506Z,95877.9
2022-10-25T07:18:29.402Z,95880.2
2022-10-25T07:19:31.891Z,95885.8
2022-10-25T07:20:33.828Z,95885.5
2022-10-25T07:21:36.336Z,95882
2022-10-25T07:22:38.835Z,95885.8
2022-10-25T07:23:41.363Z,95884.1
2022-10-25T07:24:43.912Z,95884.7
2022-10-25T07:25:46.137Z,95889.9
2022-10-25T07:26:48.633Z,95890.7
2022-10-25T07:27:51.312Z,95889.5
2022-10-25T07:28:53.536Z,95891
2022-10-25T07:29:55.730Z,95893.2
2022-10-25T07:30:57.976Z,95892.6
2022-10-25T07:32:00.159Z,95895.3
2022-10-25T07:33:02.373Z,95889
2022-10-25T07:34:04.855Z,95888.1
2022-10-25T07:35:07.331Z,95887.4
2022-10-25T07:37:14.802Z,95896.9
2022-10-25T07:38:16.701Z,95896
2022-10-25T07:39:18.941Z,95895.9
2022-10-25T07:40:21.169Z,95892.8
2022-10-25T07:41:23.641Z,95891.3
2022-10-25T07:42:26.137Z,95890.7
2022-10-25T07:43:28.617Z,95892.4
2022-10-25T07:44:31.140Z,95891.8
2022-10-25T07:45:33.628Z,95893
2022-10-25T07:46:35.559Z,95892.1
2022-10-25T07:47:37.759Z,95895.4
2022-10-25T07:48:40.002Z,95898
2022-10-25T07:49:42.192Z,95900.5
2022-10-25T07:50:44.669Z,95900.6
2022-10-25T07:51:46.865Z,95902.3
2022-10-25T07:52:49.125Z,95899.9
2022-10-25T07:53:51.596Z,95905.3
2022-10-25T07:54:54.129Z,95906
2022-10-25T07:55:56.616Z,95908.4
2022-10-25T07:56:58.824Z,95908.5
2022-10-25T07:58:01.302Z,95913.3
2022-10-25T07:59:03.243Z,95914.1
2022-10-25T08:00:05.744Z,95912.4
2022-10-25T08:01:08.294Z,95914.3
2022-10-25T08:02:10.567Z,95914.7
2022-10-25T08:03:13.935Z,95915.8
2022-10-25T08:04:16.660Z,95913.3
2022-10-25T08:05:19.157Z,95914.2
2022-10-25T08:06:21.356Z,95911.2
2022-10-25T08:07:23.845Z,95914.6
2022-10-25T08:08:25.762Z,95909.7
2022-10-25T08:10:33.280Z,95908.8
2022-10-25T08:11:35.523Z,95908.8
2022-10-25T08:12:37.704Z,95908.6
2022-10-25T08:13:39.651Z,95905.8
2022-10-25T08:15:51.974Z,95906.2
2022-10-25T08:16:54.573Z,95908.8
2022-10-25T08:17:56.499Z,95901.8
2022-10-25T08:18:58.435Z,95905.5
2022-10-25T08:20:01.383Z,95902.7
2022-10-25T08:21:05.407Z,95902.8
2022-10-25T08:22:07.580Z,95900.3
2022-10-25T08:23:09.804Z,95895.5
2022-10-25T08:24:12.554Z,95898.6
2022-10-25T08:25:15.394Z,95899.9
2022-10-25T08:26:17.908Z,95904.1
2022-10-25T08:27:20.137Z,95901.8
2022-10-25T08:28:22.351Z,95899.2
2022-10-25T08:29:24.553Z,95903.1
2022-10-25T08:30:27.034Z,95902
2022-10-25T08:31:29.667Z,95901.4
2022-10-25T08:32:32.203Z,95900
2022-10-25T08:33:34.711Z,95905
2022-10-25T08:34:36.905Z,95900.3
2022-10-25T08:35:39.149Z,95901.6
2022-10-25T08:36:41.651Z,95903
2022-10-25T08:37:44.317Z,95900.8
2022-10-25T08:38:47.230Z,95902.4
2022-10-25T08:40:54.120Z,95902.3
2022-10-25T08:41:56.634Z,95903.9
2022-10-25T08:42:58.849Z,95903.4
2022-10-25T08:44:01.182Z,95903.8
2022-10-25T08:45:03.384Z,95904.2
2022-10-25T08:46:05.317Z,95906
2022-10-25T08:47:07.813Z,95902.5
2022-10-25T08:48:09.737Z,95902.4
2022-10-25T08:49:12.213Z,95903.8
2022-10-25T08:50:14.414Z,95904.3
2022-10-25T08:51:16.905Z,95902.5
2022-10-25T08:52:19.082Z,95907.3
2022-10-25T08:53:21.571Z,95904.8
2022-10-25T08:54:23.770Z,95902.5
2022-10-25T08:55:26.241Z,95905.8
2022-10-25T08:56:28.717Z,95904.8
2022-10-25T08:57:31.233Z,95910.5
2022-10-25T08:58:33.750Z,95910.6
2022-10-25T08:59:36.219Z,95912.6
2022-10-25T09:00:38.158Z,95910.1
2022-10-25T09:01:41.052Z,95906.9
2022-10-25T09:02:43.497Z,95912.4
2022-10-25T09:03:45.708Z,95908.2
2022-10-25T09:04:47.632Z,95907.8
2022-10-25T09:05:49.842Z,95907
2022-10-25T09:06:52.350Z,95909.5
2022-10-25T09:07:54.534Z,95904
2022-10-25T09:08:56.739Z,95907.6
2022-10-25T09:09:59.219Z,95907.6
2022-10-25T09:11:01.161Z,95906.5
2022-10-25T09:12:03.344Z,95900.8
2022-10-25T09:14:10.873Z,95898.6
2022-10-25T09:15:12.843Z,95902.4
2022-10-25T09:16:15.348Z,95903.1
2022-10-25T09:17:17.557Z,95904.2
2022-10-25T09:18:20.056Z,95903
2022-10-25T09:19:21.977Z,95902.5
2022-10-25T09:20:24.470Z,95899.6
2022-10-25T09:21:26.680Z,95902.1
2022-10-25T09:22:29.180Z,95906.1
2022-10-25T09:23:31.373Z,95903.5
2022-10-25T09:24:33.574Z,95900.7
2022-10-25T09:25:35.776Z,95896.9
2022-10-25T09:26:37.965Z,95900.4
2022-10-25T09:27:40.447Z,95899.2
2022-10-25T09:28:42.924Z,95898.7
2022-10-25T09:29:45.527Z,95901.1
2022-10-25T09:30:47.761Z,95901.3
2022-10-25T09:31:49.746Z,95905.1
2022-10-25T09:32:51.951Z,95906.5
2022-10-25T09:33:54.474Z,95903.6
2022-10-25T09:35:01.179Z,95903.9
2022-10-25T09:36:03.379Z,95901.3
2022-10-25T09:37:05.847Z,95906.1
2022-10-25T09:38:08.367Z,95903.9
2022-10-25T09:40:15.545Z,95906.4
2022-10-25T09:41:18.018Z,95904.7
2022-10-25T09:42:20.208Z,95903
2022-10-25T09:43:22.141Z,95903.5
2022-10-25T09:44:24.335Z,95904.2
2022-10-25T09:45:26.662Z,95904
2022-10-25T09:46:29.155Z,95904.8
2022-10-25T09:47:31.107Z,95906
2022-10-25T09:48:33.582Z,95909.9
2022-10-25T09:49:36.079Z,95909.5
2022-10-25T09:50:38.242Z,95907.3
2022-10-25T09:51:40.459Z,95907.3
2022-10-25T09:52:42.925Z,95907.7
2022-10-25T09:53:45.453Z,95911.6
2022-10-25T09:54:47.914Z,95908.1
2022-10-25T09:55:49.830Z,95912.6
2022-10-25T09:56:52.296Z,95912.3
2022-10-25T09:57:54.325Z,95914.4
2022-10-25T09:58:56.262Z,95911
2022-10-25T09:59:58.463Z,95914.8
2022-10-25T10:01:00.704Z,95911.5
2022-10-25T10:02:04.181Z,95913
2022-10-25T10:04:10.525Z,95915.6
2022-10-25T10:05:13.017Z,95914.8
2022-10-25T10:06:15.217Z,95914.5
2022-10-25T10:07:17.729Z,95918.2
2022-10-25T10:08:19.952Z,95914.5
2022-10-25T10:09:22.164Z,95913.6
2022-10-25T10:10:24.630Z,95917.6
2022-10-25T10:11:26.832Z,95914.6
2022-10-25T10:12:28.759Z,95914.7
2022-10-25T10:13:31.260Z,95918.3
2022-10-25T10:14:33.465Z,95910.7
2022-10-25T10:15:35.636Z,95913.6
2022-10-25T10:16:38.160Z,95910.4
2022-10-25T10:17:40.693Z,95912.7
2022-10-25T10:18:43.168Z,95909.1
2022-10-25T10:19:45.644Z,95912.4
2022-10-25T10:20:47.585Z,95911.6
2022-10-25T10:21:50.053Z,95908.9
2022-10-25T10:22:52.385Z,95904.7
2022-10-25T10:23:54.326Z,95900.4
2022-10-25T10:24:56.819Z,95907.5
2022-10-25T10:25:59.010Z,95906.5
2022-10-25T10:27:01.483Z,95907.7
2022-10-25T10:28:03.951Z,95902.1
2022-10-25T10:30:11.142Z,95902.4
2022-10-25T10:31:13.108Z,95902.3
2022-10-25T10:32:15.611Z,95903.7
2022-10-25T10:33:17.551Z,95902.6
2022-10-25T10:34:19.751Z,95899.9
2022-10-25T10:35:22.247Z,95901.3
2022-10-25T10:36:24.739Z,95898.7
2022-10-25T10:37:27.233Z,95899.2
2022-10-25T10:38:29.699Z,95899
2022-10-25T10:39:31.903Z,95900.2
2022-10-25T10:40:33.826Z,95894.4
2022-10-25T10:41:36.016Z,95896.3
2022-10-25T10:42:38.650Z,95896.4
2022-10-25T10:43:41.135Z,95898.3
2022-10-25T10:44:43.606Z,95897.1
2022-10-25T10:45:46.082Z,95895.2
2022-10-25T10:46:48.271Z,95894
2022-10-25T10:47:50.508Z,95894
2022-10-25T10:48:52.990Z,95892.4
2022-10-25T10:49:55.487Z,95894.5
2022-10-25T10:50:57.966Z,95890.2
2022-10-25T10:52:00.686Z,95890.1
2022-10-25T10:53:02.891Z,95891.7
2022-10-25T10:54:04.815Z,95888
2022-10-25T10:55:07.288Z,95888.8
2022-10-25T10:56:09.800Z,95888.2
2022-10-25T10:57:12.265Z,95881.5
2022-10-25T10:58:14.459Z,95885.9
2022-10-25T10:59:16.671Z,95880.5
2022-10-25T11:00:18.848Z,95876.5
2022-10-25T11:01:21.661Z,95874.1
2022-10-25T11:02:25.975Z,95870.8
2022-10-25T11:03:28.962Z,95875.4
2022-10-25T11:04:31.240Z,95873.2
2022-10-25T11:05:33.705Z,95874.8
2022-10-25T11:06:35.112Z,95874.8
2022-10-25T11:07:37.124Z,95876.9
2022-10-25T11:08:39.373Z,95881.4
2022-10-25T11:09:41.561Z,95881.5
2022-10-25T11:10:43.514Z,95876.3
2022-10-25T11:11:46.037Z,95879.8
2022-10-25T11:12:48.442Z,95873.8
2022-10-25T11:13:50.978Z,95878.9
2022-10-25T11:14:53.444Z,95875.2
2022-10-25T11:15:55.366Z,95875.6
2022-10-25T11:16:58.128Z,95874.2
2022-10-25T11:18:00.329Z,95870.5
2022-10-25T11:19:03.040Z,95869.4
2022-10-25T11:20:05.366Z,95867.1
2022-10-25T11:21:07.605Z,95868.1
2022-10-25T11:22:10.077Z,95866.4
2022-10-25T11:23:12.679Z,95863.7
2022-10-25T11:24:14.899Z,95861.7
2022-10-25T11:25:17.367Z,95856.8
2022-10-25T11:26:19.572Z,95860.7
2022-10-25T11:27:21.895Z,95859.3
2022-10-25T11:28:24.363Z,95861
2022-10-25T11:29:26.830Z,95853.4
2022-10-25T11:30:28.758Z,95855.5
2022-10-25T11:31:31.222Z,95858.3
2022-10-25T11:32:33.706Z,95851.3
2022-10-25T11:33:35.927Z,95851
2022-10-25T11:34:38.340Z,95852.2
2022-10-25T11:35:40.674Z,95853.1
2022-10-25T11:36:42.869Z,95853.9
2022-10-25T11:37:46.512Z,95851.9
2022-10-25T11:38:49.713Z,95852.4
2022-10-25T11:39:51.913Z,95851.3
2022-10-25T11:40:54.382Z,95850
2022-10-25T11:41:56.968Z,95849.4
2022-10-25T11:42:59.543Z,95853.7
2022-10-25T11:44:01.745Z,95847.8
2022-10-25T11:45:04.224Z,95845.1
2022-10-25T11:46:06.692Z,95844.1
2022-10-25T11:47:08.905Z,95844
2022-10-25T11:48:10.801Z,95843.2
2022-10-25T11:49:13.003Z,95844.6
2022-10-25T11:50:15.726Z,95843.7
2022-10-25T11:51:18.319Z,95843.7
2022-10-25T11:52:20.568Z,95845.5
2022-10-25T11:53:22.775Z,95845.4
2022-10-25T11:54:25.103Z,95842.1
2022-10-25T11:55:27.298Z,95845
2022-10-25T11:56:29.771Z,95843.6
2022-10-25T11:57:32.245Z,95842.7
2022-10-25T11:58:34.286Z,95841.5
2022-10-25T11:59:36.469Z,95837
2022-10-25T12:00:38.950Z,95835.4
2022-10-25T12:01:41.884Z,95837.7
2022-10-25T12:02:44.734Z,95837
2022-10-25T12:03:47.659Z,95834.9
2022-10-25T12:04:49.854Z,95837.5
2022-10-25T12:05:51.982Z,95837.8
2022-10-25T12:06:54.042Z,95838.7
2022-10-25T12:07:56.520Z,95841.3
2022-10-25T12:08:58.998Z,95836.8
2022-10-25T12:10:01.352Z,95836.2
2022-10-25T12:11:03.855Z,95839.1
2022-10-25T12:12:06.327Z,95832.1
2022-10-25T12:13:08.794Z,95834.4
2022-10-25T12:14:11.395Z,95836.7
2022-10-25T12:15:13.868Z,95838.8
2022-10-25T12:16:15.801Z,95835.1
2022-10-25T12:17:18.295Z,95837.1
2022-10-25T12:19:25.492Z,95834.7
2022-10-25T12:20:27.897Z,95838.1
2022-10-25T12:21:30.425Z,95837.1
2022-10-25T12:22:32.739Z,95834.9
2022-10-25T12:23:34.941Z,95831.7
2022-10-25T12:24:37.176Z,95833.3
2022-10-25T12:25:39.794Z,95830.4
2022-10-25T12:26:42.343Z,95830.1
2022-10-25T12:27:44.821Z,95830.5
2022-10-25T12:28:47.040Z,95828.9
2022-10-25T12:29:49.350Z,95825.6
2022-10-25T12:30:51.828Z,95831.4
2022-10-25T12:31:53.484Z,95832.8
2022-10-25T12:32:55.961Z,95830.5
2022-10-25T12:33:58.162Z,95829.2
2022-10-25T12:35:00.400Z,95831
2022-10-25T12:36:02.922Z,95825.5
2022-10-25T12:37:05.373Z,95829.4
2022-10-25T12:38:07.694Z,95827.9
2022-10-25T12:39:09.891Z,95830.5
2022-10-25T12:40:12.354Z,95827.9
2022-10-25T12:41:14.790Z,95826.6
2022-10-25T12:42:16.699Z,95824.8
2022-10-25T12:43:19.173Z,95827.9
2022-10-25T12:44:21.370Z,95823.5
2022-10-25T12:45:23.979Z,95824
2022-10-25T12:46:26.452Z,95826.9
2022-10-25T12:47:28.654Z,95825.2
2022-10-25T12:48:30.858Z,95825.2
2022-10-25T12:49:33.059Z,95825
2022-10-25T12:50:35.543Z,95824.5
2022-10-25T12:51:37.754Z,95825.5
2022-10-25T12:52:40.283Z,95824.7
2022-10-25T12:53:42.988Z,95822.7
2022-10-25T12:54:45.498Z,95823.5
2022-10-25T12:55:47.714Z,95826.5
2022-10-25T12:56:50.316Z,95819.8
2022-10-25T12:57:52.540Z,95822
2022-10-25T12:58:54.437Z,95820